createdAt,value
2022-09-04T00:00:56.548Z,68.18
2022-09-04T00:03:47.466Z,68.64
2022-09-04T00:06:33.814Z,68.42
2022-09-04T00:09:41.765Z,68.88
2022-09-04T00:12:15.184Z,69.35
2022-09-04T00:14:54.479Z,69.07
2022-09-04T00:17:33.823Z,69.46
2022-09-04T00:20:07.559Z,69.43
2022-09-04T00:23:03.008Z,69.53
2022-09-04T00:26:03.045Z,69.34
2022-09-04T00:28:38.562Z,70.16
2022-09-04T00:31:38.800Z,69.87
2022-09-04T00:34:44.739Z,69.89
2022-09-04T00:37:32.836Z,69.98
2022-09-04T00:40:38.081Z,70.36
2022-09-04T00:43:16.832Z,70.77
2022-09-04T00:46:33.340Z,70.69
2022-09-04T00:49:20.506Z,70.78
2022-09-04T00:52:10.923Z,70.64
2022-09-04T00:59:06.985Z,71.30
2022-09-04T01:01:36.608Z,71.71
2022-09-04T01:04:17.857Z,71.36
2022-09-04T01:07:00.621Z,71.58
2022-09-04T01:10:10.927Z,71.25
2022-09-04T01:13:01.249Z,71.50
2022-09-04T01:16:19.691Z,71.65
2022-09-04T01:19:39.573Z,71.64
2022-09-04T01:22:33.732Z,72.27
2022-09-04T01:28:52.944Z,72.37
2022-09-04T01:32:05.466Z,72.23
2022-09-04T01:35:14.836Z,72.40
2022-09-04T01:37:50.213Z,73.15
2022-09-04T01:44:07.480Z,72.89
2022-09-04T01:46:56.232Z,72.79
2022-09-04T01:50:05.525Z,72.67
2022-09-04T01:53:16.845Z,72.76
2022-09-04T01:56:09.392Z,73.20
2022-09-04T01:58:44.060Z,73.22
2022-09-04T02:01:29.310Z,73.26
2022-09-04T02:04:47.642Z,73.34
2022-09-04T02:07:57.867Z,72.92
2022-09-04T02:14:42.579Z,73.35
2022-09-04T02:21:26.248Z,73.48
2022-09-04T02:28:02.294Z,73.74
2022-09-04T02:30:54.447Z,74.02
2022-09-04T02:34:02.708Z,74.21
2022-09-04T02:36:46.543Z,74.32
2022-09-04T02:39:46.629Z,74.29
2022-09-04T02:42:32.394Z,74.76
2022-09-04T02:45:49.521Z,74.84
2022-09-04T02:48:54.562Z,74.83
2022-09-04T02:52:14.064Z,74.58
2022-09-04T02:55:18.454Z,74.94
2022-09-04T02:58:22.695Z,74.88
2022-09-04T03:01:40.302Z,75.08
2022-09-04T03:04:31.988Z,75.38
2022-09-04T03:10:53.284Z,76.04
2022-09-04T03:13:32.209Z,76.30
2022-09-04T03:16:18.045Z,75.88
2022-09-04T03:19:16.565Z,76.03
2022-09-04T03:22:01.753Z,76.17
2022-09-04T03:24:55.104Z,76.58
2022-09-04T03:27:55.657Z,76.34
2022-09-04T03:30:42.769Z,76.55
2022-09-04T03:33:39.654Z,76.70
2022-09-04T03:36:32.493Z,76.88
2022-09-04T03:39:05.661Z,77.45
2022-09-04T03:42:21.925Z,77.29
2022-09-04T03:45:16.176Z,77.19
2022-09-04T03:48:22.992Z,77.29
2022-09-04T03:50:57.549Z,77.65
2022-09-04T03:53:46.796Z,77.42
2022-09-04T03:56:36.075Z,77.53
2022-09-04T04:03:32.773Z,77.95
2022-09-04T04:06:39.125Z,77.85
2022-09-04T04:09:27.825Z,78.19
2022-09-04T04:12:28.444Z,78.13
2022-09-04T04:15:14.916Z,78.30
2022-09-04T04:18:26.366Z,78.27
2022-09-04T04:21:37.636Z,78.41
2022-09-04T04:24:31.509Z,78.78
2022-09-04T04:27:36.533Z,79.05
2022-09-04T04:30:29.292Z,78.55
2022-09-04T04:33:24.566Z,78.74
2022-09-04T04:36:17.641Z,79.09
2022-09-04T04:39:14.384Z,79.36
2022-09-04T04:42:07.864Z,79.38
2022-09-04T04:52:21.468Z,79.46
2022-09-04T04:55:45.738Z,79.47
2022-09-04T04:58:55.928Z,79.33
2022-09-04T05:01:44.366Z,79.70
2022-09-04T05:04:53.630Z,79.73
2022-09-04T05:08:18.110Z,80.02
2022-09-04T05:11:25.254Z,80.04
2022-09-04T05:14:30.454Z,80.04
2022-09-04T05:17:40.620Z,80.67
2022-09-04T05:20:48.692Z,80.80
2022-09-04T05:23:32.084Z,81.18
2022-09-04T05:30:12.184Z,80.74
2022-09-04T05:33:24.579Z,80.93
2022-09-04T05:36:33.848Z,81.50
2022-09-04T05:39:26.834Z,81.41
2022-09-04T05:42:38.072Z,81.63
2022-09-04T05:45:27.215Z,82.10
2022-09-04T05:48:42.679Z,81.71
2022-09-04T05:51:36.428Z,81.98
2022-09-04T05:54:34.052Z,82.20
2022-09-04T05:57:54.604Z,82.64
2022-09-04T06:00:48.279Z,82.56
2022-09-04T06:04:08.643Z,82.40
2022-09-04T06:10:46.485Z,82.74
2022-09-04T06:13:39.800Z,82.52
2022-09-04T06:16:43.697Z,82.70
2022-09-04T06:19:31.276Z,82.80
2022-09-04T06:22:32.363Z,83.17
2022-09-04T06:25:44.562Z,82.96
2022-09-04T06:29:05.575Z,82.83
2022-09-04T06:31:47.067Z,82.94
2022-09-04T06:34:59.045Z,83.04
2022-09-04T06:37:35.189Z,83.40
2022-09-04T06:40:38.588Z,82.75
2022-09-04T06:43:59.108Z,83.03
2022-09-04T06:46:47.834Z,82.30
2022-09-04T06:49:52.905Z,82.51
2022-09-04T06:52:29.731Z,82.85
2022-09-04T06:55:52.764Z,82.70
2022-09-04T06:58:51.005Z,82.94
2022-09-04T07:01:40.456Z,82.87
2022-09-04T07:04:47.897Z,82.33
2022-09-04T07:11:24.299Z,82.75
2022-09-04T07:14:20.121Z,81.61
2022-09-04T07:17:23.927Z,82.02
2022-09-04T07:20:32.068Z,82.03
2022-09-04T07:24:01.045Z,81.64
2022-09-04T07:27:03.177Z,80.62
2022-09-04T07:30:01.843Z,80.66
2022-09-04T07:32:40.368Z,80.63
2022-09-04T07:39:12.665Z,80.94
2022-09-04T07:42:19.811Z,79.94
2022-09-04T07:44:59.863Z,80.67
2022-09-04T07:47:45.018Z,80.46
2022-09-04T07:50:36.011Z,80.33
2022-09-04T07:53:24.391Z,79.70
2022-09-04T07:56:14.575Z,79.39
2022-09-04T07:59:13.412Z,79.92
2022-09-04T08:02:30.427Z,79.61
2022-09-04T08:05:15.670Z,79.18
2022-09-04T08:08:29.203Z,79.08
2022-09-04T08:15:10.241Z,78.52
2022-09-04T08:17:54.656Z,78.01
2022-09-04T08:20:41.549Z,78.34
2022-09-04T08:23:58.719Z,77.86
2022-09-04T08:27:04.053Z,77.68
2022-09-04T08:30:13.227Z,77.63
2022-09-04T08:33:18.455Z,76.61
2022-09-04T08:36:44.643Z,76.48
2022-09-04T08:43:40.072Z,75.78
2022-09-04T08:46:14.610Z,76.07
2022-09-04T08:52:33.817Z,75.16
2022-09-04T08:55:21.680Z,74.82
2022-09-04T08:58:21.632Z,74.12
2022-09-04T09:01:08.805Z,74.02
2022-09-04T09:04:20.325Z,73.91
2022-09-04T09:07:14.087Z,72.97
2022-09-04T09:10:32.452Z,72.72
2022-09-04T09:13:37.520Z,72.40
2022-09-04T09:20:24.408Z,71.02
2022-09-04T09:23:32.586Z,70.98
2022-09-04T09:26:43.389Z,70.96
2022-09-04T09:29:46.780Z,69.92
2022-09-04T09:33:05.977Z,70.02
2022-09-04T09:36:09.668Z,69.46
2022-09-04T09:39:17.101Z,69.14
2022-09-04T09:42:17.007Z,68.67
2022-09-04T09:45:19.643Z,68.12
2022-09-04T09:48:43.852Z,68.36
2022-09-04T09:51:37.259Z,68.28
2022-09-04T09:54:41.331Z,68.20
2022-09-04T09:57:33.368Z,67.34
2022-09-04T10:00:09.154Z,66.01
2022-09-04T10:07:02.041Z,66.34
2022-09-04T10:10:14.339Z,65.17
2022-09-04T10:13:15.424Z,65.05
2022-09-04T10:16:20.001Z,65.06
2022-09-04T10:19:24.880Z,64.43
2022-09-04T10:22:34.040Z,63.62
2022-09-04T10:25:31.065Z,63.65
2022-09-04T10:28:47.403Z,63.72
2022-09-04T10:31:48.255Z,63.60
2022-09-04T10:34:40.659Z,63.00
2022-09-04T10:37:44.832Z,63.39
2022-09-04T10:41:03.765Z,62.61
2022-09-04T10:44:22.876Z,61.83
2022-09-04T10:47:15.869Z,62.17
2022-09-04T10:50:39.536Z,62.21
2022-09-04T10:53:20.746Z,61.95
2022-09-04T10:56:23.108Z,62.06
2022-09-04T11:03:18.492Z,61.10
2022-09-04T11:06:18.200Z,60.93
2022-09-04T11:09:26.543Z,60.64
2022-09-04T11:12:25.122Z,61.21
2022-09-04T11:15:23.390Z,60.96
2022-09-04T11:18:35.730Z,60.17
2022-09-04T11:21:23.964Z,60.30
2022-09-04T11:24:23.385Z,59.19
2022-09-04T11:27:35.240Z,59.75
2022-09-04T11:30:48.504Z,59.40
2022-09-04T11:34:03.055Z,59.25
2022-09-04T11:36:53.461Z,59.85
2022-09-04T11:40:04.287Z,58.25
2022-09-04T11:43:22.330Z,58.65
2022-09-04T11:46:29.299Z,57.77
2022-09-04T11:49:18.649Z,57.45
2022-09-04T11:52:26.467Z,57.10
2022-09-04T11:55:14.205Z,57.67
2022-09-04T11:58:07.493Z,58.44
2022-09-04T12:01:16.439Z,58.62
2022-09-04T12:04:30.013Z,59.20
2022-09-04T12:07:05.604Z,58.70
2022-09-04T12:10:13.698Z,57.56
2022-09-04T12:13:39.808Z,56.74
2022-09-04T12:16:44.460Z,57.94
2022-09-04T12:20:07.989Z,58.05
2022-09-04T12:23:19.185Z,58.72
2022-09-04T12:26:24.573Z,57.84
2022-09-04T12:29:28.801Z,57.79
2022-09-04T12:32:42.679Z,57.06
2022-09-04T12:35:45.338Z,57.24
2022-09-04T12:38:49.722Z,57.58
2022-09-04T12:41:33.461Z,57.83
2022-09-04T12:44:30.468Z,56.73
2022-09-04T12:47:13.979Z,56.21
2022-09-04T12:50:04.605Z,56.62
2022-09-04T12:52:43.517Z,56.45
2022-09-04T12:55:38.625Z,56.47
2022-09-04T12:58:24.480Z,58.25
2022-09-04T13:01:01.818Z,57.97
2022-09-04T13:03:45.317Z,57.57
2022-09-04T13:06:53.396Z,58.04
2022-09-04T13:09:53.154Z,58.04
2022-09-04T13:13:05.144Z,57.76
2022-09-04T13:16:13.118Z,58.21
2022-09-04T13:18:58.725Z,57.98
2022-09-04T13:25:30.109Z,57.22
2022-09-04T13:31:47.150Z,56.06
2022-09-04T13:34:52.365Z,56.07
2022-09-04T13:37:39.412Z,55.96
2022-09-04T13:40:15.051Z,56.60
2022-09-04T13:43:05.739Z,56.67
2022-09-04T13:45:43.898Z,56.55
2022-09-04T13:48:33.284Z,54.09
2022-09-04T13:51:33.017Z,53.48
2022-09-04T13:54:57.465Z,53.92
2022-09-04T13:57:37.494Z,54.56
2022-09-04T14:00:24.936Z,53.77
2022-09-04T14:03:07.598Z,54.63
2022-09-04T14:05:45.241Z,54.44
2022-09-04T14:08:20.677Z,53.27
2022-09-04T14:11:06.571Z,54.14
2022-09-04T14:14:13.127Z,54.72
2022-09-04T14:16:41.953Z,55.23
2022-09-04T14:19:31.139Z,55.10
2022-09-04T14:22:37.525Z,55.10
2022-09-04T14:25:30.646Z,55.24
2022-09-04T14:28:40.185Z,55.14
2022-09-04T14:31:35.200Z,54.65
2022-09-04T14:34:37.621Z,55.47
2022-09-04T14:37:37.752Z,53.11
2022-09-04T14:41:22.686Z,53.14
2022-09-04T14:44:12.680Z,53.58
2022-09-04T14:46:49.556Z,53.92
2022-09-04T14:49:47.407Z,53.28
2022-09-04T14:52:37.923Z,52.31
2022-09-04T14:55:30.769Z,52.53
2022-09-04T14:58:47.754Z,52.27
2022-09-04T15:05:04.413Z,52.66
2022-09-04T15:08:06.891Z,52.72
2022-09-04T15:11:03.347Z,51.29
2022-09-04T15:13:51.072Z,51.61
2022-09-04T15:17:00.269Z,51.36
2022-09-04T15:19:55.466Z,51.39
2022-09-04T15:22:29.509Z,50.56
2022-09-04T15:25:57.346Z,51.31
2022-09-04T15:28:40.662Z,51.71
2022-09-04T15:31:44.526Z,51.16
2022-09-04T15:34:26.077Z,51.70
2022-09-04T15:37:22.531Z,51.62
2022-09-04T15:40:37.124Z,50.20
2022-09-04T15:43:08.084Z,50.26
2022-09-04T15:45:53.671Z,50.39
2022-09-04T15:49:11.239Z,51.03
2022-09-04T15:51:57.905Z,50.80
2022-09-04T15:54:39.665Z,50.77
2022-09-04T15:57:47.918Z,50.49
2022-09-04T16:00:22.873Z,50.64
2022-09-04T16:03:42.385Z,50.95
2022-09-04T16:06:36.929Z,51.33
2022-09-04T16:09:23.339Z,50.47
2022-09-04T16:12:14.838Z,51.03
2022-09-04T16:15:06.425Z,51.47
2022-09-04T16:17:59.128Z,51.15
2022-09-04T16:21:08.342Z,50.98
2022-09-04T16:23:59.784Z,51.48
2022-09-04T16:26:33.095Z,51.31
2022-09-04T16:29:38.666Z,51.31
2022-09-04T16:32:27.202Z,51.48
2022-09-04T16:35:19.521Z,51.26
2022-09-04T16:38:40.676Z,52.04
2022-09-04T16:41:29.220Z,51.90
2022-09-04T16:44:37.533Z,52.87
2022-09-04T16:47:26.965Z,52.21
2022-09-04T16:50:00.081Z,51.91
2022-09-04T16:52:41.591Z,52.04
2022-09-04T16:55:24.891Z,52.61
2022-09-04T16:58:35.620Z,52.28
2022-09-04T17:01:14.088Z,52.38
2022-09-04T17:03:51.979Z,51.37
2022-09-04T17:07:06.579Z,50.41
2022-09-04T17:09:52.431Z,50.17
2022-09-04T17:12:28.138Z,51.72
2022-09-04T17:15:18.598Z,51.71
2022-09-04T17:17:47.338Z,49.74
2022-09-04T17:22:33.244Z,51.08
2022-09-04T17:29:02.239Z,48.04
2022-09-04T17:29:19.234Z,50.68
2022-09-04T17:29:57.252Z,47.86
2022-09-04T17:32:53.791Z,48.33
2022-09-04T17:40:39.131Z,49.11
2022-09-04T17:40:50.561Z,49.53
2022-09-04T17:42:09.343Z,51.10
2022-09-04T17:45:07.664Z,51.46
2022-09-04T17:47:43.037Z,51.25
2022-09-04T17:50:25.283Z,51.44
2022-09-04T17:53:00.485Z,51.58
2022-09-04T17:55:31.146Z,51.48
2022-09-04T17:58:38.535Z,51.84
2022-09-04T18:01:17.598Z,51.65
2022-09-04T18:04:20.508Z,52.81
2022-09-04T18:07:01.157Z,53.57
2022-09-04T18:10:17.277Z,53.45
2022-09-04T18:13:01.589Z,54.50
2022-09-04T18:15:49.090Z,54.57
2022-09-04T18:18:53.180Z,54.81
2022-09-04T18:21:41.146Z,55.29
2022-09-04T18:24:09.594Z,55.67
2022-09-04T18:27:13.569Z,55.44
2022-09-04T18:34:07.911Z,56.44
2022-09-04T18:37:19.200Z,57.12
2022-09-04T18:37:25.237Z,56.57
2022-09-04T18:39:22.103Z,57.22
2022-09-04T18:50:23.363Z,56.90
2022-09-04T19:58:06.220Z,63.43
2022-09-04T20:00:43.798Z,63.78
2022-09-04T20:03:30.474Z,64.02
2022-09-04T20:06:20.562Z,64.58
2022-09-04T20:09:06.058Z,64.88
2022-09-04T20:11:38.581Z,65.22
2022-09-04T20:14:55.102Z,64.63
2022-09-04T20:17:47.967Z,65.31
2022-09-04T20:20:23.044Z,65.81
2022-09-04T20:23:35.174Z,65.57
2022-09-04T20:26:30.565Z,66.10
2022-09-04T20:29:22.276Z,66.38
2022-09-04T20:32:00.865Z,66.78
2022-09-04T20:34:38.422Z,67.01
2022-09-04T20:37:20.059Z,67.00
2022-09-04T20:40:12.002Z,67.07
2022-09-04T20:42:56.584Z,67.34
2022-09-04T20:48:24.359Z,67.70
2022-09-04T20:52:55.658Z,67.42
2022-09-04T20:52:57.424Z,67.75
2022-09-04T20:54:29.800Z,68.06
2022-09-04T21:02:02.488Z,68.08
2022-09-04T21:03:19.609Z,68.25
2022-09-04T21:03:22.275Z,67.91
2022-09-04T21:06:17.801Z,68.10
2022-09-04T21:09:14.223Z,68.59
2022-09-04T21:11:53.903Z,68.86
2022-09-04T21:14:45.604Z,69.30
2022-09-04T21:17:33.517Z,69.52
2022-09-04T21:20:44.866Z,69.63
2022-09-04T21:23:41.883Z,70.16
2022-09-04T21:26:56.959Z,69.89
2022-09-04T21:29:59.313Z,70.13
2022-09-04T21:32:30.776Z,70.58
2022-09-04T21:35:13.423Z,70.52
2022-09-04T21:38:14.873Z,70.51
2022-09-04T21:41:01.657Z,70.66
2022-09-04T21:43:58.045Z,70.90
2022-09-04T21:46:46.594Z,70.70
2022-09-04T21:49:18.016Z,70.98
2022-09-04T21:52:08.736Z,71.03
2022-09-04T21:56:38.057Z,70.73
2022-09-04T22:02:42.823Z,71.33
2022-09-04T22:02:48.050Z,71.77
2022-09-04T22:04:48.267Z,71.64
2022-09-04T22:11:51.660Z,71.46
2022-09-04T22:13:32.170Z,71.94
2022-09-04T22:13:49.407Z,72.11
2022-09-04T22:16:48.093Z,71.73
2022-09-04T22:19:41.192Z,71.99
2022-09-04T22:22:19.613Z,71.69
2022-09-04T22:25:00.137Z,72.05
2022-09-04T22:28:08.489Z,72.12
2022-09-04T22:31:00.514Z,71.81
2022-09-04T22:34:16.025Z,72.02
2022-09-04T22:37:04.694Z,72.00
2022-09-04T22:39:52.090Z,71.97
2022-09-04T22:42:26.692Z,72.47
2022-09-04T22:45:33.050Z,72.36
2022-09-04T22:48:47.854Z,72.66
2022-09-04T22:51:44.029Z,73.07
2022-09-04T22:54:13.537Z,73.67
2022-09-04T22:57:19.636Z,73.52
2022-09-04T23:00:19.188Z,73.97
2022-09-04T23:03:15.635Z,73.74
2022-09-04T23:06:24.883Z,73.99
2022-09-04T23:13:47.942Z,73.92
2022-09-04T23:13:48.526Z,74.33
2022-09-04T23:15:39.824Z,74.46
2022-09-04T23:20:51.506Z,74.13
2022-09-04T23:26:37.439Z,74.62
2022-09-04T23:26:49.607Z,74.34
2022-09-04T23:28:23.111Z,74.68
2022-09-04T23:31:29.089Z,74.35
2022-09-04T23:33:59.229Z,74.79
2022-09-04T23:36:53.501Z,74.61
2022-09-04T23:40:04.606Z,74.54
2022-09-04T23:42:55.922Z,75.04
2022-09-04T23:45:29.109Z,75.20
2022-09-04T23:48:33.939Z,75.01
2022-09-04T23:51:13.721Z,75.13
2022-09-04T23:54:00.100Z,75.34
2022-09-04T23:56:35.139Z,75.31
2022-09-04T23:59:56.984Z,74.84
